createdAt,value
2023-02-11T00:01:31.879Z,68.97
2023-02-11T00:04:04.884Z,69.03
2023-02-11T00:06:35.588Z,68.98
2023-02-11T00:09:07.139Z,69.20
2023-02-11T00:11:41.184Z,69.21
2023-02-11T00:14:10.376Z,69.35
2023-02-11T00:16:37.189Z,69.27
2023-02-11T00:19:06.371Z,69.01
2023-02-11T00:21:34.203Z,69.13
2023-02-11T00:24:02.312Z,69.15
2023-02-11T00:26:32.664Z,69.12
2023-02-11T00:29:02.285Z,69.19
2023-02-11T00:31:34.229Z,69.15
2023-02-11T00:34:03.443Z,69.28
2023-02-11T00:36:30.753Z,69.19
2023-02-11T00:38:58.735Z,69.16
2023-02-11T00:41:26.229Z,69.23
2023-02-11T00:43:57.982Z,69.00
2023-02-11T00:46:28.012Z,69.37
2023-02-11T00:48:57.890Z,69.02
2023-02-11T00:51:26.349Z,69.10
2023-02-11T00:53:56.183Z,68.94
2023-02-11T00:56:26.152Z,69.25
2023-02-11T00:58:56.149Z,69.39
2023-02-11T01:01:25.666Z,69.15
2023-02-11T01:03:52.489Z,69.50
2023-02-11T01:06:26.357Z,69.71
2023-02-11T01:08:53.032Z,70.07
2023-02-11T01:11:21.710Z,70.05
2023-02-11T01:13:53.241Z,69.96
2023-02-11T01:16:20.514Z,69.92
2023-02-11T01:19:05.472Z,70.23
2023-02-11T01:21:32.309Z,69.73
2023-02-11T01:23:59.071Z,69.91
2023-02-11T01:26:25.704Z,69.75
2023-02-11T01:28:54.604Z,69.54
2023-02-11T01:31:26.326Z,69.32
2023-02-11T01:33:55.402Z,69.26
2023-02-11T01:36:22.098Z,69.37
2023-02-11T01:38:51.140Z,69.49
2023-02-11T01:41:20.906Z,69.50
2023-02-11T01:43:50.298Z,69.33
2023-02-11T01:46:35.382Z,69.51
2023-02-11T01:49:17.363Z,69.55
2023-02-11T01:52:04.569Z,69.50
2023-02-11T01:54:53.821Z,69.76
2023-02-11T01:57:25.261Z,69.66
2023-02-11T02:00:10.986Z,69.43
2023-02-11T02:02:58.504Z,69.61
2023-02-11T02:05:34.430Z,69.49
2023-02-11T02:08:04.387Z,69.53
2023-02-11T02:10:36.786Z,69.41
2023-02-11T02:13:03.998Z,69.34
2023-02-11T02:15:34.450Z,69.37
2023-02-11T02:18:34.497Z,69.37
2023-02-11T02:21:30.838Z,69.71
2023-02-11T02:24:56.632Z,69.50
2023-02-11T02:27:47.607Z,69.73
2023-02-11T02:31:00.682Z,69.89
2023-02-11T02:34:00.700Z,69.59
2023-02-11T02:36:36.707Z,69.56
2023-02-11T02:39:11.159Z,69.73
2023-02-11T02:41:41.680Z,69.58
2023-02-11T02:44:14.287Z,69.69
2023-02-11T02:46:41.109Z,70.09
2023-02-11T02:49:13.734Z,70.49
2023-02-11T02:52:08.354Z,70.56
2023-02-11T02:54:53.273Z,70.40
2023-02-11T02:57:50.426Z,70.44
2023-02-11T03:00:44.307Z,70.65
2023-02-11T03:03:23.764Z,70.65
2023-02-11T03:06:05.641Z,70.63
2023-02-11T03:08:44.366Z,70.61
2023-02-11T03:11:12.579Z,70.73
2023-02-11T03:13:43.327Z,70.80
2023-02-11T03:16:21.158Z,70.89
2023-02-11T03:18:56.524Z,71.49
2023-02-11T03:21:26.585Z,71.35
2023-02-11T03:23:58.065Z,71.15
2023-02-11T03:26:31.153Z,71.13
2023-02-11T03:29:19.587Z,71.17
2023-02-11T03:31:49.156Z,71.65
2023-02-11T03:34:23.958Z,71.51
2023-02-11T03:37:10.191Z,71.74
2023-02-11T03:39:45.112Z,71.65
2023-02-11T03:42:17.113Z,71.49
2023-02-11T03:44:54.769Z,71.21
2023-02-11T03:47:26.166Z,71.00
2023-02-11T03:49:56.891Z,70.99
2023-02-11T03:52:26.283Z,70.85
2023-02-11T03:54:56.421Z,70.78
2023-02-11T03:57:26.218Z,70.91
2023-02-11T03:59:58.448Z,70.83
2023-02-11T04:02:29.033Z,70.56
2023-02-11T04:05:03.108Z,70.54
2023-02-11T04:07:29.802Z,70.60
2023-02-11T04:09:56.464Z,70.73
2023-02-11T04:12:25.795Z,70.33
2023-02-11T04:14:52.554Z,70.76
2023-02-11T04:17:21.563Z,70.87
2023-02-11T04:19:48.227Z,70.64
2023-02-11T04:22:17.162Z,70.90
2023-02-11T04:24:44.223Z,70.83
2023-02-11T04:27:15.174Z,70.67
2023-02-11T04:29:41.857Z,70.80
2023-02-11T04:32:14.287Z,70.54
2023-02-11T04:34:43.236Z,70.50
2023-02-11T04:37:09.976Z,70.66
2023-02-11T04:39:42.352Z,70.64
2023-02-11T04:42:13.392Z,70.57
2023-02-11T04:44:42.528Z,70.78
2023-02-11T04:47:13.514Z,70.97
2023-02-11T04:49:40.180Z,71.11
2023-02-11T04:52:07.123Z,70.83
2023-02-11T04:54:36.090Z,71.37
2023-02-11T04:57:02.976Z,71.22
2023-02-11T04:59:29.850Z,71.27
2023-02-11T05:01:59.202Z,71.14
2023-02-11T05:04:30.570Z,71.16
2023-02-11T05:06:58.699Z,71.35
2023-02-11T05:09:25.587Z,71.30
2023-02-11T05:11:52.377Z,71.35
2023-02-11T05:14:19.080Z,71.08
2023-02-11T05:16:45.812Z,71.09
2023-02-11T05:19:12.566Z,71.13
2023-02-11T05:21:40.098Z,71.29
2023-02-11T05:24:11.257Z,71.01
2023-02-11T05:26:40.142Z,71.31
2023-02-11T05:29:06.800Z,71.35
2023-02-11T05:31:35.700Z,71.09
2023-02-11T05:34:04.754Z,71.09
2023-02-11T05:36:34.393Z,70.99
2023-02-11T05:39:03.680Z,71.10
2023-02-11T05:41:30.359Z,71.31
2023-02-11T05:43:59.278Z,71.33
2023-02-11T05:46:28.235Z,71.55
2023-02-11T05:48:56.683Z,71.62
2023-02-11T05:51:25.354Z,71.74
2023-02-11T05:53:54.464Z,71.83
2023-02-11T05:56:21.087Z,72.06
2023-02-11T05:58:50.277Z,72.09
2023-02-11T06:01:17.064Z,72.01
2023-02-11T06:03:44.143Z,72.12
2023-02-11T06:06:16.346Z,72.34
2023-02-11T06:08:43.115Z,72.18
2023-02-11T06:11:09.829Z,72.37
2023-02-11T06:13:36.695Z,71.96
2023-02-11T06:16:03.810Z,71.96
2023-02-11T06:18:30.625Z,72.00
2023-02-11T06:20:57.334Z,71.69
2023-02-11T06:23:28.536Z,71.92
2023-02-11T06:26:02.310Z,71.91
2023-02-11T06:28:31.308Z,72.08
2023-02-11T06:31:09.867Z,72.00
2023-02-11T06:33:36.650Z,71.88
2023-02-11T06:36:05.415Z,71.82
2023-02-11T06:38:32.599Z,71.89
2023-02-11T06:41:01.741Z,71.85
2023-02-11T06:43:28.373Z,71.71
2023-02-11T06:45:59.624Z,71.68
2023-02-11T06:48:26.295Z,71.60
2023-02-11T06:50:52.987Z,71.37
2023-02-11T06:53:19.674Z,71.21
2023-02-11T06:55:46.344Z,71.05
2023-02-11T06:58:13.068Z,70.97
2023-02-11T07:00:40.270Z,71.32
2023-02-11T07:03:06.977Z,71.29
2023-02-11T07:05:34.366Z,71.36
2023-02-11T07:08:01.216Z,71.44
2023-02-11T07:10:32.648Z,71.34
2023-02-11T07:12:59.285Z,71.49
2023-02-11T07:15:28.291Z,71.50
2023-02-11T07:17:54.952Z,71.34
2023-02-11T07:20:24.102Z,71.29
2023-02-11T07:22:50.789Z,71.15
2023-02-11T07:25:19.966Z,71.15
2023-02-11T07:27:46.760Z,70.34
2023-02-11T07:30:15.917Z,70.36
2023-02-11T07:32:42.642Z,70.57
2023-02-11T07:35:09.514Z,70.33
2023-02-11T07:37:36.560Z,70.19
2023-02-11T07:40:07.715Z,70.00
2023-02-11T07:42:35.628Z,70.10
2023-02-11T07:45:02.752Z,70.13
2023-02-11T07:47:31.787Z,69.66
2023-02-11T07:50:01.589Z,69.73
2023-02-11T07:52:31.346Z,69.67
2023-02-11T07:54:58.309Z,69.35
2023-02-11T07:57:25.365Z,68.38
2023-02-11T07:59:53.525Z,68.71
2023-02-11T08:02:20.409Z,68.61
2023-02-11T08:04:47.386Z,68.93
2023-02-11T08:07:18.234Z,68.78
2023-02-11T08:09:45.582Z,67.88
2023-02-11T08:12:12.555Z,67.78
2023-02-11T08:14:53.148Z,67.72
2023-02-11T08:17:20.098Z,67.19
2023-02-11T08:19:46.808Z,67.47
2023-02-11T08:22:13.819Z,67.68
2023-02-11T08:24:43.328Z,67.30
2023-02-11T08:27:10.281Z,67.72
2023-02-11T08:29:37.296Z,67.91
2023-02-11T08:32:04.266Z,67.93
2023-02-11T08:34:31.084Z,67.29
2023-02-11T08:36:57.930Z,67.11
2023-02-11T08:39:45.413Z,66.06
2023-02-11T08:42:15.481Z,66.54
2023-02-11T08:44:43.858Z,66.11
2023-02-11T08:47:10.654Z,66.04
2023-02-11T08:49:46.961Z,65.52
2023-02-11T08:52:13.763Z,64.42
2023-02-11T08:54:40.443Z,64.38
2023-02-11T08:57:07.546Z,63.95
2023-02-11T08:59:34.687Z,62.41
2023-02-11T09:02:03.894Z,62.96
2023-02-11T09:04:30.607Z,62.85
2023-02-11T09:07:00.979Z,61.32
2023-02-11T09:09:28.059Z,62.14
2023-02-11T09:11:57.382Z,60.94
2023-02-11T09:14:24.941Z,61.16
2023-02-11T09:16:53.234Z,59.44
2023-02-11T09:19:30.629Z,60.09
2023-02-11T09:22:07.713Z,60.87
2023-02-11T09:24:52.997Z,60.46
2023-02-11T09:27:37.471Z,60.02
2023-02-11T09:30:25.200Z,58.41
2023-02-11T09:33:09.542Z,59.73
2023-02-11T09:35:41.023Z,59.97
2023-02-11T09:38:39.305Z,59.42
2023-02-11T09:41:08.795Z,59.04
2023-02-11T09:43:45.428Z,59.96
2023-02-11T09:46:23.661Z,60.21
2023-02-11T09:48:54.068Z,59.59
2023-02-11T09:51:36.492Z,59.27
2023-02-11T09:54:34.831Z,59.19
2023-02-11T09:57:19.635Z,58.71
2023-02-11T09:59:56.699Z,58.95
2023-02-11T10:02:59.014Z,58.15
2023-02-11T10:05:42.526Z,56.84
2023-02-11T10:08:17.114Z,57.45
2023-02-11T10:10:54.905Z,57.54
2023-02-11T10:13:47.888Z,58.55
2023-02-11T10:16:45.868Z,57.56
2023-02-11T10:19:21.417Z,55.79
2023-02-11T10:21:51.840Z,57.32
2023-02-11T10:24:20.334Z,57.00
2023-02-11T10:26:47.906Z,57.45
2023-02-11T10:29:37.038Z,56.68
2023-02-11T10:32:37.710Z,56.53
2023-02-11T10:35:15.686Z,57.93
2023-02-11T10:37:44.625Z,57.26
2023-02-11T10:40:24.658Z,57.24
2023-02-11T10:42:55.951Z,57.66
2023-02-11T10:45:32.720Z,57.59
2023-02-11T10:48:25.333Z,57.39
2023-02-11T10:51:08.448Z,56.26
2023-02-11T10:53:37.202Z,56.61
2023-02-11T10:56:11.272Z,56.98
2023-02-11T10:58:54.346Z,55.25
2023-02-11T11:01:37.866Z,56.50
2023-02-11T11:04:34.073Z,55.06
2023-02-11T11:07:21.270Z,55.64
2023-02-11T11:10:07.339Z,56.10
2023-02-11T11:12:46.894Z,56.08
2023-02-11T11:15:16.818Z,56.39
2023-02-11T11:17:47.130Z,56.32
2023-02-11T11:20:29.449Z,56.19
2023-02-11T11:23:23.260Z,54.68
2023-02-11T11:26:12.805Z,52.75
2023-02-11T11:28:50.112Z,54.47
2023-02-11T11:31:25.317Z,54.34
2023-02-11T11:33:58.338Z,54.87
2023-02-11T11:36:35.173Z,54.16
2023-02-11T11:39:15.326Z,54.15
2023-02-11T11:41:53.904Z,53.58
2023-02-11T11:44:31.639Z,53.92
2023-02-11T11:47:20.816Z,53.14
2023-02-11T11:50:12.612Z,53.16
2023-02-11T11:53:00.198Z,53.09
2023-02-11T11:55:42.270Z,51.90
2023-02-11T11:58:23.377Z,50.38
2023-02-11T12:01:05.429Z,47.96
2023-02-11T12:03:35.119Z,49.86
2023-02-11T12:06:31.615Z,49.47
2023-02-11T12:09:07.954Z,50.29
2023-02-11T12:11:52.741Z,48.47
2023-02-11T12:14:44.159Z,50.21
2023-02-11T12:17:19.941Z,50.70
2023-02-11T12:19:56.409Z,51.58
2023-02-11T12:22:34.248Z,51.52
2023-02-11T12:25:06.270Z,52.08
2023-02-11T12:28:14.012Z,50.68
2023-02-11T12:30:55.912Z,51.13
2023-02-11T12:33:49.489Z,50.21
2023-02-11T12:36:30.373Z,50.13
2023-02-11T12:39:32.082Z,50.57
2023-02-11T12:42:34.388Z,50.56
2023-02-11T12:45:16.002Z,50.77
2023-02-11T12:48:04.908Z,50.38
2023-02-11T12:51:00.822Z,50.25
2023-02-11T12:54:07.778Z,48.75
2023-02-11T12:56:59.344Z,49.62
2023-02-11T12:59:57.578Z,50.99
2023-02-11T13:02:29.029Z,50.88
2023-02-11T13:05:08.367Z,50.81
2023-02-11T13:07:41.910Z,51.44
2023-02-11T13:10:13.841Z,51.12
2023-02-11T13:13:04.263Z,50.92
2023-02-11T13:15:36.481Z,51.19
2023-02-11T13:18:40.516Z,50.00
2023-02-11T13:21:16.483Z,50.40
2023-02-11T13:24:05.530Z,50.02
2023-02-11T13:27:03.100Z,50.30
2023-02-11T13:30:14.574Z,50.66
2023-02-11T13:32:56.779Z,50.95
2023-02-11T13:35:29.816Z,50.92
2023-02-11T13:38:26.282Z,49.79
2023-02-11T13:41:05.447Z,49.86
2023-02-11T13:43:37.524Z,49.94
2023-02-11T13:46:17.256Z,48.35
2023-02-11T13:48:52.719Z,49.52
2023-02-11T13:51:37.750Z,49.03
2023-02-11T13:54:09.730Z,49.76
2023-02-11T13:56:40.126Z,49.13
2023-02-11T13:59:27.582Z,48.68
2023-02-11T14:02:17.937Z,49.76
2023-02-11T14:05:23.399Z,49.63
2023-02-11T14:08:27.648Z,49.18
2023-02-11T14:11:10.998Z,49.88
2023-02-11T14:14:03.614Z,49.25
2023-02-11T14:16:38.425Z,50.69
2023-02-11T14:19:06.792Z,49.85
2023-02-11T14:21:39.060Z,49.73
2023-02-11T14:24:07.165Z,49.37
2023-02-11T14:27:00.703Z,49.49
2023-02-11T14:29:51.330Z,50.49
2023-02-11T14:32:26.977Z,50.03
2023-02-11T14:35:16.036Z,49.50
2023-02-11T14:38:00.856Z,50.51
2023-02-11T14:40:31.745Z,50.43
2023-02-11T14:43:06.401Z,50.83
2023-02-11T14:45:39.141Z,50.89
2023-02-11T14:48:20.179Z,50.64
2023-02-11T14:50:52.321Z,50.90
2023-02-11T14:53:22.678Z,51.14
2023-02-11T14:55:54.201Z,51.25
2023-02-11T14:58:26.529Z,51.57
2023-02-11T15:01:22.714Z,51.50
2023-02-11T15:03:50.020Z,51.68
2023-02-11T15:06:20.185Z,51.56
2023-02-11T15:09:01.362Z,51.44
2023-02-11T15:11:37.198Z,51.67
2023-02-11T15:14:16.645Z,51.60
2023-02-11T15:16:45.568Z,51.82
2023-02-11T15:19:26.810Z,52.02
2023-02-11T15:21:54.208Z,52.42
2023-02-11T15:24:25.659Z,52.38
2023-02-11T15:27:18.618Z,51.96
2023-02-11T15:29:50.734Z,52.68
2023-02-11T15:32:25.471Z,52.77
2023-02-11T15:34:58.505Z,52.91
2023-02-11T15:37:32.457Z,52.75
2023-02-11T15:40:18.991Z,52.90
2023-02-11T15:43:06.511Z,52.98
2023-02-11T15:45:36.096Z,53.45
2023-02-11T15:48:09.217Z,53.45
2023-02-11T15:50:52.488Z,53.33
2023-02-11T15:53:25.199Z,53.34
2023-02-11T15:55:55.113Z,53.51
2023-02-11T15:58:23.398Z,53.93
2023-02-11T16:00:59.891Z,53.68
2023-02-11T16:03:33.106Z,53.85
2023-02-11T16:06:24.522Z,53.90
2023-02-11T16:09:04.546Z,54.13
2023-02-11T16:11:39.584Z,54.08
2023-02-11T16:14:39.341Z,54.06
2023-02-11T16:17:36.065Z,53.94
2023-02-11T16:20:06.706Z,54.21
2023-02-11T16:22:38.158Z,54.22
2023-02-11T16:25:05.838Z,54.53
2023-02-11T16:27:41.763Z,54.51
2023-02-11T16:30:38.382Z,54.15
2023-02-11T16:33:05.638Z,54.43
2023-02-11T16:35:37.434Z,54.90
2023-02-11T16:38:08.949Z,55.36
2023-02-11T16:40:44.476Z,55.00
2023-02-11T16:43:13.446Z,54.89
2023-02-11T16:45:44.789Z,54.87
2023-02-11T16:48:19.401Z,54.77
2023-02-11T16:51:01.391Z,54.74
2023-02-11T16:53:30.387Z,55.19
2023-02-11T16:55:57.098Z,55.05
2023-02-11T16:58:28.544Z,54.92
2023-02-11T17:01:00.797Z,55.25
2023-02-11T17:03:31.419Z,55.64
2023-02-11T17:05:58.356Z,55.51
2023-02-11T17:08:27.846Z,55.42
2023-02-11T17:10:54.695Z,55.55
2023-02-11T17:13:21.375Z,55.65
2023-02-11T17:15:53.170Z,55.55
2023-02-11T17:18:20.007Z,55.75
2023-02-11T17:20:49.151Z,55.63
2023-02-11T17:23:18.555Z,56.16
2023-02-11T17:25:57.949Z,56.27
2023-02-11T17:28:34.820Z,56.50
2023-02-11T17:31:09.900Z,56.82
2023-02-11T17:33:40.948Z,56.88
2023-02-11T17:36:09.084Z,56.78
2023-02-11T17:38:37.368Z,56.75
2023-02-11T17:41:05.122Z,56.88
2023-02-11T17:43:38.956Z,57.35
2023-02-11T17:46:07.931Z,57.50
2023-02-11T17:48:38.575Z,57.97
2023-02-11T17:51:08.777Z,57.94
2023-02-11T17:53:36.089Z,58.29
2023-02-11T17:56:07.301Z,58.64
2023-02-11T17:58:36.286Z,58.19
2023-02-11T18:01:05.860Z,58.74
2023-02-11T18:03:37.632Z,58.27
2023-02-11T18:06:09.704Z,58.78
2023-02-11T18:08:39.103Z,58.67
2023-02-11T18:11:18.100Z,59.07
2023-02-11T18:13:52.742Z,59.08
2023-02-11T18:16:19.482Z,59.02
2023-02-11T18:18:46.118Z,59.31
2023-02-11T18:21:17.512Z,59.42
2023-02-11T18:23:44.726Z,59.28
2023-02-11T18:26:15.436Z,59.59
2023-02-11T18:28:45.949Z,60.18
2023-02-11T18:31:14.310Z,60.56
2023-02-11T18:33:44.097Z,60.22
2023-02-11T18:36:15.316Z,60.72
2023-02-11T18:38:48.855Z,60.50
2023-02-11T18:41:18.069Z,60.50
2023-02-11T18:43:47.280Z,60.52
2023-02-11T18:46:19.236Z,60.16
2023-02-11T18:48:45.960Z,60.55
2023-02-11T18:51:18.414Z,60.66
2023-02-11T18:53:45.780Z,60.63
2023-02-11T18:56:19.084Z,61.15
2023-02-11T18:58:53.498Z,61.09
2023-02-11T19:01:27.821Z,61.06
2023-02-11T19:03:58.453Z,61.38
2023-02-11T19:06:30.353Z,61.24
2023-02-11T19:09:04.216Z,61.25
2023-02-11T19:11:50.393Z,61.32
2023-02-11T19:14:27.640Z,61.42
2023-02-11T19:16:58.551Z,61.68
2023-02-11T19:19:34.374Z,61.33
2023-02-11T19:22:10.555Z,61.38
2023-02-11T19:24:38.020Z,61.20
2023-02-11T19:27:07.189Z,61.42
2023-02-11T19:29:35.292Z,61.02
2023-02-11T19:32:06.036Z,61.20
2023-02-11T19:34:41.047Z,61.46
2023-02-11T19:37:13.045Z,61.40
2023-02-11T19:39:45.087Z,61.08
2023-02-11T19:42:12.654Z,61.35
2023-02-11T19:44:41.814Z,61.28
2023-02-11T19:47:13.632Z,61.48
2023-02-11T19:49:45.361Z,61.57
2023-02-11T19:52:14.523Z,61.53
2023-02-11T19:54:43.571Z,61.50
2023-02-11T19:57:10.220Z,61.51
2023-02-11T19:59:39.248Z,61.50
2023-02-11T20:02:05.941Z,62.20
2023-02-11T20:04:37.229Z,62.31
2023-02-11T20:07:06.342Z,62.41
2023-02-11T20:09:33.042Z,62.44
2023-02-11T20:12:04.362Z,62.95
2023-02-11T20:14:34.020Z,62.79
2023-02-11T20:17:02.977Z,63.04
2023-02-11T20:19:30.744Z,63.07
2023-02-11T20:22:02.466Z,63.42
2023-02-11T20:24:34.640Z,63.20
2023-02-11T20:27:08.474Z,63.46
2023-02-11T20:29:40.650Z,63.34
2023-02-11T20:32:13.640Z,63.37
2023-02-11T20:34:44.919Z,63.15
2023-02-11T20:37:11.658Z,63.13
2023-02-11T20:39:42.918Z,63.12
2023-02-11T20:42:12.769Z,63.09
2023-02-11T20:44:39.465Z,63.10
2023-02-11T20:47:06.193Z,62.86
2023-02-11T20:49:33.049Z,63.07
2023-02-11T20:51:59.741Z,63.35
2023-02-11T20:54:31.039Z,63.27
2023-02-11T20:57:02.435Z,63.58
2023-02-11T20:59:33.868Z,63.75
2023-02-11T21:02:01.698Z,63.67
2023-02-11T21:04:30.553Z,63.84
2023-02-11T21:06:59.945Z,63.59
2023-02-11T21:09:31.408Z,63.67
2023-02-11T21:11:58.375Z,63.80
2023-02-11T21:14:26.847Z,63.51
2023-02-11T21:16:56.560Z,63.47
2023-02-11T21:19:28.349Z,63.67
2023-02-11T21:22:01.870Z,63.73
2023-02-11T21:24:36.119Z,63.64
2023-02-11T21:27:03.133Z,63.55
2023-02-11T21:29:29.752Z,63.97
2023-02-11T21:31:58.651Z,64.14
2023-02-11T21:34:25.357Z,64.18
2023-02-11T21:36:56.862Z,64.00
2023-02-11T21:39:26.489Z,64.05
2023-02-11T21:41:56.026Z,63.92
2023-02-11T21:44:24.918Z,64.28
2023-02-11T21:46:51.677Z,64.25
2023-02-11T21:49:21.500Z,64.25
2023-02-11T21:51:50.448Z,64.52
2023-02-11T21:54:18.842Z,64.54
2023-02-11T21:56:54.400Z,65.15
2023-02-11T21:59:23.715Z,64.93
2023-02-11T22:01:53.482Z,65.06
2023-02-11T22:04:25.918Z,64.69
2023-02-11T22:06:57.500Z,64.98
2023-02-11T22:09:26.335Z,65.30
2023-02-11T22:11:56.033Z,65.28
2023-02-11T22:14:25.091Z,65.18
2023-02-11T22:16:51.823Z,65.24
2023-02-11T22:19:19.001Z,65.15
2023-02-11T22:21:48.024Z,65.13
2023-02-11T22:24:17.211Z,64.96
2023-02-11T22:26:46.907Z,64.76
2023-02-11T22:29:13.593Z,64.97
2023-02-11T22:31:45.314Z,64.82
2023-02-11T22:34:11.952Z,64.83
2023-02-11T22:36:40.841Z,64.82
2023-02-11T22:39:11.028Z,64.75
2023-02-11T22:41:40.583Z,64.61
2023-02-11T22:44:07.857Z,64.68
2023-02-11T22:46:35.109Z,64.64
2023-02-11T22:49:04.572Z,64.58
2023-02-11T22:51:36.557Z,64.78
2023-02-11T22:54:05.896Z,64.93
2023-02-11T22:56:35.659Z,64.94
2023-02-11T22:59:08.547Z,64.84
2023-02-11T23:01:37.640Z,64.89
2023-02-11T23:04:06.381Z,65.18
2023-02-11T23:06:38.226Z,64.73
2023-02-11T23:09:12.331Z,64.71
2023-02-11T23:11:41.946Z,64.67
2023-02-11T23:14:11.990Z,64.69
2023-02-11T23:16:41.381Z,65.17
2023-02-11T23:19:12.376Z,64.91
2023-02-11T23:21:43.911Z,64.78
2023-02-11T23:24:13.009Z,64.72
2023-02-11T23:26:41.071Z,64.57
2023-02-11T23:29:08.027Z,64.57
2023-02-11T23:31:40.501Z,64.64
2023-02-11T23:34:10.644Z,64.56
2023-02-11T23:36:40.076Z,64.20
2023-02-11T23:39:06.710Z,64.51
2023-02-11T23:41:33.341Z,64.60
2023-02-11T23:44:00.176Z,64.15
2023-02-11T23:46:27.884Z,64.28
2023-02-11T23:48:56.931Z,64.36
2023-02-11T23:51:23.864Z,64.12
2023-02-11T23:53:56.114Z,64.50
2023-02-11T23:56:27.762Z,64.62
2023-02-11T23:58:59.352Z,64.74
